createdAt,value
2023-04-20T00:01:31.252Z,5.73
2023-04-20T00:03:58.965Z,5.72
2023-04-20T00:06:29.909Z,5.74
2023-04-20T00:08:57.302Z,5.65
2023-04-20T00:11:26.921Z,5.63
2023-04-20T00:13:56.331Z,5.62
2023-04-20T00:16:23.827Z,5.64
2023-04-20T00:18:53.229Z,5.70
2023-04-20T00:21:24.415Z,5.66
2023-04-20T00:23:52.481Z,5.71
2023-04-20T00:26:20.067Z,5.65
2023-04-20T00:28:48.238Z,5.64
2023-04-20T00:31:15.816Z,5.66
2023-04-20T00:33:43.035Z,5.71
2023-04-20T00:36:10.209Z,5.71
2023-04-20T00:38:37.846Z,5.72
2023-04-20T00:41:05.275Z,5.71
2023-04-20T00:43:32.601Z,5.72
2023-04-20T00:46:04.027Z,5.66
2023-04-20T00:48:31.733Z,5.77
2023-04-20T00:51:00.144Z,5.77
2023-04-20T00:53:27.773Z,5.70
2023-04-20T00:55:55.121Z,5.81
2023-04-20T00:58:23.122Z,5.81
2023-04-20T01:00:50.457Z,5.82
2023-04-20T01:03:17.644Z,5.83
2023-04-20T01:05:52.193Z,5.82
2023-04-20T01:08:20.692Z,5.81
2023-04-20T01:10:49.129Z,5.87
2023-04-20T01:13:16.753Z,5.90
2023-04-20T01:15:43.975Z,5.81
2023-04-20T01:18:12.059Z,5.89
2023-04-20T01:20:39.536Z,5.88
2023-04-20T01:23:06.825Z,5.96
2023-04-20T01:25:34.389Z,5.98
2023-04-20T01:28:02.359Z,5.95
2023-04-20T01:30:30.124Z,5.88
2023-04-20T01:32:57.194Z,5.91
2023-04-20T01:35:30.780Z,5.98
2023-04-20T01:37:57.592Z,6.04
2023-04-20T01:40:26.122Z,5.97
2023-04-20T01:42:53.676Z,5.93
2023-04-20T01:45:21.342Z,5.89
2023-04-20T01:47:54.729Z,5.86
2023-04-20T01:50:22.219Z,5.79
2023-04-20T01:52:49.622Z,5.79
2023-04-20T01:55:19.506Z,5.75
2023-04-20T01:57:47.714Z,5.72
2023-04-20T02:00:16.210Z,5.79
2023-04-20T02:02:43.384Z,5.80
2023-04-20T02:05:11.442Z,5.82
2023-04-20T02:07:40.547Z,5.93
2023-04-20T02:10:13.625Z,5.96
2023-04-20T02:12:42.126Z,5.97
2023-04-20T02:15:11.760Z,5.98
2023-04-20T02:17:39.280Z,5.98
2023-04-20T02:20:09.653Z,5.96
2023-04-20T02:22:38.954Z,5.69
2023-04-20T02:25:07.335Z,5.82
2023-04-20T02:27:36.674Z,5.85
2023-04-20T02:30:04.502Z,5.65
2023-04-20T02:32:32.165Z,5.38
2023-04-20T02:35:00.739Z,5.23
2023-04-20T02:37:35.219Z,5.10
2023-04-20T02:40:05.132Z,5.23
2023-04-20T02:42:34.785Z,5.43
2023-04-20T02:45:03.295Z,5.52
2023-04-20T02:47:31.674Z,5.57
2023-04-20T02:49:59.057Z,5.58
2023-04-20T02:52:26.575Z,5.56
2023-04-20T02:54:54.030Z,5.64
2023-04-20T02:57:21.523Z,5.70
2023-04-20T02:59:49.003Z,5.70
2023-04-20T03:02:16.393Z,5.59
2023-04-20T03:04:45.145Z,5.65
2023-04-20T03:07:13.584Z,5.70
2023-04-20T03:09:42.792Z,5.73
2023-04-20T03:12:10.233Z,5.73
2023-04-20T03:14:37.718Z,5.72
2023-04-20T03:17:05.150Z,5.82
2023-04-20T03:19:32.653Z,5.76
2023-04-20T03:22:01.052Z,5.82
2023-04-20T03:24:28.537Z,5.93
2023-04-20T03:26:56.237Z,5.96
2023-04-20T03:29:23.451Z,5.95
2023-04-20T03:31:50.950Z,6.06
2023-04-20T03:34:19.430Z,6.05
2023-04-20T03:36:47.130Z,5.97
2023-04-20T03:39:16.919Z,5.98
2023-04-20T03:41:44.585Z,6.02
2023-04-20T03:44:18.078Z,6.05
2023-04-20T03:46:47.563Z,6.04
2023-04-20T03:49:17.324Z,6.01
2023-04-20T03:51:46.132Z,6.01
2023-04-20T03:54:15.740Z,6.04
2023-04-20T03:56:44.967Z,5.99
2023-04-20T03:59:12.502Z,6.03
2023-04-20T04:01:40.062Z,6.04
2023-04-20T04:04:09.776Z,6.08
2023-04-20T04:06:37.116Z,6.07
2023-04-20T04:09:04.623Z,6.11
2023-04-20T04:11:31.908Z,6.11
2023-04-20T04:13:59.624Z,6.10
2023-04-20T04:16:26.873Z,6.10
2023-04-20T04:18:53.933Z,6.12
2023-04-20T04:21:23.492Z,6.17
2023-04-20T04:23:51.200Z,6.19
2023-04-20T04:26:21.726Z,6.16
2023-04-20T04:28:52.094Z,6.23
2023-04-20T04:31:19.805Z,6.22
2023-04-20T04:33:46.919Z,6.15
2023-04-20T04:36:17.789Z,6.18
2023-04-20T04:38:45.118Z,6.24
2023-04-20T04:41:13.089Z,6.21
2023-04-20T04:43:42.125Z,6.20
2023-04-20T04:46:14.812Z,6.23
2023-04-20T04:48:42.651Z,6.22
2023-04-20T04:51:11.989Z,6.24
2023-04-20T04:53:39.300Z,6.25
2023-04-20T04:56:08.072Z,6.25
2023-04-20T04:58:35.200Z,6.29
2023-04-20T05:01:02.334Z,6.31
2023-04-20T05:03:29.476Z,6.29
2023-04-20T05:05:57.240Z,6.34
2023-04-20T05:08:27.393Z,6.39
2023-04-20T05:11:01.299Z,6.47
2023-04-20T05:13:28.650Z,6.42
2023-04-20T05:15:56.011Z,6.49
2023-04-20T05:18:23.052Z,6.53
2023-04-20T05:20:50.558Z,6.48
2023-04-20T05:23:18.096Z,6.47
2023-04-20T05:25:51.680Z,6.48
2023-04-20T05:28:20.592Z,6.51
2023-04-20T05:30:48.071Z,6.58
2023-04-20T05:33:15.562Z,6.68
2023-04-20T05:35:42.922Z,6.63
2023-04-20T05:38:10.536Z,6.64
2023-04-20T05:40:44.076Z,6.68
2023-04-20T05:43:11.281Z,6.78
2023-04-20T05:45:41.069Z,6.71
2023-04-20T05:48:11.175Z,6.82
2023-04-20T05:50:38.415Z,6.75
2023-04-20T05:53:05.755Z,6.78
2023-04-20T05:55:33.886Z,6.79
2023-04-20T05:58:01.650Z,6.77
2023-04-20T06:00:32.136Z,6.73
2023-04-20T06:02:59.520Z,6.75
2023-04-20T06:05:32.985Z,6.78
2023-04-20T06:08:02.438Z,6.92
2023-04-20T06:10:32.656Z,6.87
2023-04-20T06:13:02.052Z,6.84
2023-04-20T06:15:31.711Z,6.89
2023-04-20T06:17:59.067Z,7.01
2023-04-20T06:20:26.432Z,6.96
2023-04-20T06:22:53.977Z,7.11
2023-04-20T06:25:21.344Z,7.15
2023-04-20T06:27:50.138Z,7.14
2023-04-20T06:30:18.745Z,7.28
2023-04-20T06:32:46.373Z,7.23
2023-04-20T06:35:13.878Z,7.30
2023-04-20T06:37:41.287Z,7.36
2023-04-20T06:40:09.085Z,7.47
2023-04-20T06:42:37.761Z,7.54
2023-04-20T06:45:07.734Z,7.60
2023-04-20T06:47:38.320Z,7.69
2023-04-20T06:50:10.136Z,7.69
2023-04-20T06:52:39.211Z,7.78
2023-04-20T06:55:06.508Z,7.85
2023-04-20T06:57:34.177Z,7.86
2023-04-20T07:00:02.527Z,7.94
2023-04-20T07:02:29.865Z,8.02
2023-04-20T07:05:02.444Z,8.22
2023-04-20T07:07:30.222Z,8.30
2023-04-20T07:09:57.494Z,8.40
2023-04-20T07:12:26.231Z,8.48
2023-04-20T07:14:59.507Z,8.56
2023-04-20T07:17:30.049Z,8.60
2023-04-20T07:19:58.289Z,8.64
2023-04-20T07:22:26.038Z,8.66
2023-04-20T07:24:53.026Z,8.59
2023-04-20T07:27:20.797Z,8.43
2023-04-20T07:29:47.822Z,8.54
2023-04-20T07:32:15.111Z,8.65
2023-04-20T07:34:42.334Z,8.64
2023-04-20T07:37:09.765Z,8.35
2023-04-20T07:39:37.340Z,8.50
2023-04-20T07:42:04.801Z,8.63
2023-04-20T07:44:33.444Z,8.78
2023-04-20T07:47:01.489Z,8.58
2023-04-20T07:49:30.037Z,8.74
2023-04-20T07:52:09.350Z,8.87
2023-04-20T07:54:43.103Z,8.99
2023-04-20T07:57:10.495Z,9.05
2023-04-20T07:59:40.982Z,9.05
2023-04-20T08:02:09.610Z,9.21
2023-04-20T08:04:41.317Z,9.23
2023-04-20T08:07:09.030Z,9.25
2023-04-20T08:09:36.753Z,9.34
2023-04-20T08:12:04.333Z,9.36
2023-04-20T08:14:32.140Z,9.52
2023-04-20T08:17:00.655Z,9.67
2023-04-20T08:19:27.755Z,9.81
2023-04-20T08:21:55.333Z,9.96
2023-04-20T08:24:22.432Z,10.04
2023-04-20T08:26:49.700Z,10.18
2023-04-20T08:29:17.784Z,10.25
2023-04-20T08:31:45.232Z,10.38
2023-04-20T08:34:12.552Z,10.49
2023-04-20T08:36:39.916Z,10.64
2023-04-20T08:39:13.014Z,10.97
2023-04-20T08:41:41.392Z,11.35
2023-04-20T08:44:08.924Z,11.57
2023-04-20T08:46:37.902Z,11.68
2023-04-20T08:49:05.222Z,11.87
2023-04-20T08:51:32.906Z,12.01
2023-04-20T08:54:07.341Z,12.17
2023-04-20T08:56:37.037Z,12.37
2023-04-20T08:59:10.421Z,12.57
2023-04-20T09:01:39.589Z,12.70
2023-04-20T09:04:17.704Z,12.99
2023-04-20T09:06:52.462Z,13.17
2023-04-20T09:09:22.645Z,13.23
2023-04-20T09:12:10.612Z,13.09
2023-04-20T09:14:48.478Z,13.07
2023-04-20T09:17:18.002Z,13.00
2023-04-20T09:19:52.690Z,13.08
2023-04-20T09:22:31.646Z,13.14
2023-04-20T09:25:00.879Z,13.11
2023-04-20T09:27:28.300Z,13.39
2023-04-20T09:30:04.356Z,13.80
2023-04-20T09:32:33.230Z,13.84
2023-04-20T09:35:00.500Z,13.99
2023-04-20T09:37:28.066Z,14.26
2023-04-20T09:40:00.235Z,14.48
2023-04-20T09:42:29.422Z,14.68
2023-04-20T09:44:57.678Z,14.96
2023-04-20T09:47:27.676Z,15.06
2023-04-20T09:50:00.109Z,14.90
2023-04-20T09:52:28.887Z,15.06
2023-04-20T09:54:57.678Z,15.29
2023-04-20T09:57:26.096Z,15.52
2023-04-20T09:59:56.173Z,15.70
2023-04-20T10:02:23.736Z,15.64
2023-04-20T10:04:55.315Z,15.81
2023-04-20T10:07:27.384Z,15.79
2023-04-20T10:10:14.830Z,16.01
2023-04-20T10:12:55.522Z,16.10
2023-04-20T10:15:28.027Z,15.81
2023-04-20T10:17:55.598Z,15.63
2023-04-20T10:20:27.512Z,15.85
2023-04-20T10:23:08.615Z,16.06
2023-04-20T10:25:36.780Z,16.25
2023-04-20T10:28:08.632Z,16.33
2023-04-20T10:30:36.840Z,16.34
2023-04-20T10:33:10.119Z,16.25
2023-04-20T10:35:51.580Z,16.57
2023-04-20T10:38:37.597Z,17.08
2023-04-20T10:41:09.586Z,17.44
2023-04-20T10:43:42.369Z,17.50
2023-04-20T10:46:24.023Z,17.76
2023-04-20T10:49:02.753Z,17.53
2023-04-20T10:51:30.380Z,17.75
2023-04-20T10:54:06.381Z,18.26
2023-04-20T10:56:42.324Z,18.23
2023-04-20T10:59:11.779Z,18.37
2023-04-20T11:01:39.253Z,18.43
2023-04-20T11:04:32.967Z,18.49
2023-04-20T11:07:09.183Z,18.58
2023-04-20T11:09:38.701Z,19.03
2023-04-20T11:12:08.442Z,19.28
2023-04-20T11:14:38.746Z,18.84
2023-04-20T11:17:07.330Z,18.74
2023-04-20T11:19:36.513Z,18.88
2023-04-20T11:22:06.862Z,18.73
2023-04-20T11:24:36.187Z,19.51
2023-04-20T11:27:05.219Z,19.85
2023-04-20T11:29:37.323Z,20.00
2023-04-20T11:32:07.635Z,19.88
2023-04-20T11:34:36.925Z,19.85
2023-04-20T11:37:14.085Z,20.03
2023-04-20T11:39:42.389Z,20.43
2023-04-20T11:42:09.946Z,20.65
2023-04-20T11:44:37.485Z,20.76
2023-04-20T11:47:06.429Z,21.10
2023-04-20T11:49:33.991Z,21.03
2023-04-20T11:52:01.523Z,21.05
2023-04-20T11:54:30.206Z,21.02
2023-04-20T11:56:57.835Z,20.79
2023-04-20T11:59:31.358Z,21.20
2023-04-20T12:01:58.978Z,20.80
2023-04-20T12:04:26.687Z,20.38
2023-04-20T12:06:54.167Z,20.29
2023-04-20T12:09:22.671Z,20.48
2023-04-20T12:11:50.126Z,20.49
2023-04-20T12:14:17.565Z,20.48
2023-04-20T12:16:45.063Z,20.54
2023-04-20T12:19:13.598Z,20.53
2023-04-20T12:21:41.940Z,20.51
2023-04-20T12:24:09.665Z,20.61
2023-04-20T12:26:38.777Z,20.64
2023-04-20T12:29:07.520Z,20.56
2023-04-20T12:31:36.077Z,20.01
2023-04-20T12:34:09.514Z,19.48
2023-04-20T12:36:37.015Z,19.08
2023-04-20T12:39:04.902Z,18.64
2023-04-20T12:41:33.469Z,18.87
2023-04-20T12:44:03.446Z,19.00
2023-04-20T12:46:33.034Z,18.92
2023-04-20T12:49:01.426Z,18.65
2023-04-20T12:51:28.992Z,18.83
2023-04-20T12:53:56.895Z,18.67
2023-04-20T12:56:24.504Z,18.70
2023-04-20T12:58:51.885Z,18.75
2023-04-20T13:01:19.415Z,18.71
2023-04-20T13:03:47.224Z,18.76
2023-04-20T13:06:30.113Z,18.79
2023-04-20T13:08:57.540Z,19.22
2023-04-20T13:11:26.730Z,19.27
2023-04-20T13:14:02.694Z,19.36
2023-04-20T13:16:30.223Z,19.00
2023-04-20T13:18:57.668Z,19.11
2023-04-20T13:21:25.310Z,18.87
2023-04-20T13:23:53.974Z,18.59
2023-04-20T13:26:23.246Z,18.49
2023-04-20T13:28:50.617Z,18.40
2023-04-20T13:31:18.272Z,18.53
2023-04-20T13:33:47.482Z,18.33
2023-04-20T13:36:15.007Z,18.54
2023-04-20T13:38:42.370Z,19.22
2023-04-20T13:41:09.965Z,20.11
2023-04-20T13:43:37.387Z,21.07
2023-04-20T13:46:05.019Z,21.35
2023-04-20T13:48:32.354Z,21.50
2023-04-20T13:50:59.846Z,21.52
2023-04-20T13:53:27.784Z,21.09
2023-04-20T13:55:55.171Z,20.48
2023-04-20T13:58:22.692Z,20.35
2023-04-20T14:00:50.308Z,19.99
2023-04-20T14:03:20.467Z,20.36
2023-04-20T14:05:49.301Z,20.95
2023-04-20T14:08:20.112Z,21.26
2023-04-20T14:10:47.618Z,21.92
2023-04-20T14:13:15.109Z,21.82
2023-04-20T14:15:42.374Z,21.52
2023-04-20T14:18:09.603Z,21.28
2023-04-20T14:20:36.959Z,21.11
2023-04-20T14:23:04.471Z,20.87
2023-04-20T14:25:32.047Z,20.99
2023-04-20T14:27:59.319Z,21.61
2023-04-20T14:30:27.847Z,22.27
2023-04-20T14:33:00.076Z,23.02
2023-04-20T14:35:28.844Z,23.51
2023-04-20T14:37:58.377Z,23.93
2023-04-20T14:40:25.832Z,23.50
2023-04-20T14:42:53.249Z,22.75
2023-04-20T14:45:21.058Z,22.32
2023-04-20T14:47:52.225Z,21.79
2023-04-20T14:50:27.594Z,21.44
2023-04-20T14:53:00.969Z,20.83
2023-04-20T14:55:29.036Z,20.61
2023-04-20T14:57:57.922Z,20.23
2023-04-20T15:00:28.525Z,19.87
2023-04-20T15:03:00.912Z,19.57
2023-04-20T15:05:28.891Z,19.28
2023-04-20T15:07:58.105Z,19.06
2023-04-20T15:10:26.194Z,18.96
2023-04-20T15:12:54.620Z,18.86
2023-04-20T15:15:22.199Z,18.70
2023-04-20T15:17:49.830Z,18.68
2023-04-20T15:20:17.331Z,18.60
2023-04-20T15:22:45.584Z,18.79
2023-04-20T15:25:12.986Z,19.41
2023-04-20T15:27:40.568Z,20.11
2023-04-20T15:30:08.348Z,20.80
2023-04-20T15:32:35.803Z,21.30
2023-04-20T15:35:05.534Z,21.78
2023-04-20T15:37:38.886Z,22.12
2023-04-20T15:40:12.948Z,22.48
2023-04-20T15:42:40.586Z,22.39
2023-04-20T15:45:09.195Z,22.49
2023-04-20T15:47:36.397Z,22.58
2023-04-20T15:50:03.993Z,22.70
2023-04-20T15:52:32.830Z,22.58
2023-04-20T15:55:01.427Z,22.58
2023-04-20T15:57:31.465Z,22.39
2023-04-20T15:59:59.403Z,22.67
2023-04-20T16:02:26.876Z,22.55
2023-04-20T16:04:54.630Z,22.43
2023-04-20T16:07:22.137Z,22.30
2023-04-20T16:09:49.709Z,22.37
2023-04-20T16:12:17.127Z,22.27
2023-04-20T16:14:44.611Z,22.10
2023-04-20T16:17:11.937Z,21.94
2023-04-20T16:19:39.611Z,21.63
2023-04-20T16:22:06.903Z,21.36
2023-04-20T16:24:34.375Z,21.19
2023-04-20T16:27:02.782Z,20.99
2023-04-20T16:29:30.278Z,20.79
2023-04-20T16:31:57.965Z,20.37
2023-04-20T16:34:26.287Z,20.41
2023-04-20T16:36:53.937Z,20.27
2023-04-20T16:39:21.197Z,20.06
2023-04-20T16:41:48.739Z,19.96
2023-04-20T16:44:39.649Z,19.81
2023-04-20T16:47:08.847Z,19.78
2023-04-20T16:49:38.621Z,19.77
2023-04-20T16:52:06.112Z,19.68
2023-04-20T16:54:35.004Z,19.54
2023-04-20T16:57:02.702Z,19.45
2023-04-20T16:59:30.099Z,19.39
2023-04-20T17:01:57.760Z,19.25
2023-04-20T17:04:26.250Z,19.21
2023-04-20T17:06:58.528Z,19.23
2023-04-20T17:09:26.052Z,18.99
2023-04-20T17:11:53.477Z,18.81
2023-04-20T17:14:21.150Z,18.76
2023-04-20T17:16:48.393Z,18.59
2023-04-20T17:19:16.023Z,18.55
2023-04-20T17:21:49.927Z,18.33
2023-04-20T17:24:17.827Z,18.21
2023-04-20T17:26:46.770Z,17.94
2023-04-20T17:29:14.048Z,17.76
2023-04-20T17:31:43.720Z,17.57
2023-04-20T17:34:11.213Z,17.42
2023-04-20T17:36:38.784Z,17.17
2023-04-20T17:39:06.738Z,17.07
2023-04-20T17:41:36.019Z,16.90
2023-04-20T17:44:03.731Z,16.61
2023-04-20T17:46:33.728Z,16.51
2023-04-20T17:49:01.180Z,16.32
2023-04-20T17:51:28.808Z,16.23
2023-04-20T17:53:58.237Z,15.89
2023-04-20T17:56:27.019Z,15.75
2023-04-20T17:58:56.677Z,15.76
2023-04-20T18:01:24.196Z,15.66
2023-04-20T18:03:52.283Z,15.63
2023-04-20T18:06:20.610Z,15.60
2023-04-20T18:08:56.793Z,15.54
2023-04-20T18:11:26.673Z,15.49
2023-04-20T18:13:54.092Z,15.28
2023-04-20T18:16:24.347Z,15.27
2023-04-20T18:18:52.979Z,15.28
2023-04-20T18:21:23.172Z,15.18
2023-04-20T18:23:52.158Z,15.05
2023-04-20T18:26:20.904Z,14.96
2023-04-20T18:28:49.412Z,14.93
2023-04-20T18:31:17.467Z,14.81
2023-04-20T18:33:46.119Z,14.76
2023-04-20T18:36:14.200Z,14.55
2023-04-20T18:38:52.047Z,14.50
2023-04-20T18:41:24.009Z,14.35
2023-04-20T18:43:56.694Z,13.96
2023-04-20T18:46:26.938Z,13.73
2023-04-20T18:48:56.112Z,13.42
2023-04-20T18:51:26.978Z,13.21
2023-04-20T18:53:54.583Z,12.94
2023-04-20T18:56:25.859Z,12.60
2023-04-20T18:58:53.861Z,12.39
2023-04-20T19:01:22.316Z,12.37
2023-04-20T19:03:52.364Z,12.24
2023-04-20T19:06:20.521Z,12.34
2023-04-20T19:08:52.218Z,12.36
2023-04-20T19:11:20.906Z,12.16
2023-04-20T19:13:49.369Z,12.02
2023-04-20T19:16:20.402Z,11.99
2023-04-20T19:18:50.062Z,11.80
2023-04-20T19:21:19.313Z,11.78
2023-04-20T19:23:52.309Z,11.79
2023-04-20T19:26:20.791Z,11.90
2023-04-20T19:28:50.057Z,11.97
2023-04-20T19:31:17.960Z,11.90
2023-04-20T19:33:46.496Z,12.04
2023-04-20T19:36:15.740Z,12.13
2023-04-20T19:38:44.202Z,12.04
2023-04-20T19:41:12.663Z,12.10
2023-04-20T19:43:40.695Z,12.01
2023-04-20T19:46:10.317Z,11.95
2023-04-20T19:48:40.090Z,11.86
2023-04-20T19:51:14.505Z,11.82
2023-04-20T19:53:42.199Z,11.73
2023-04-20T19:56:09.662Z,11.55
2023-04-20T19:58:37.032Z,11.42
2023-04-20T20:01:06.648Z,11.37
2023-04-20T20:03:34.884Z,11.31
2023-04-20T20:06:03.417Z,11.00
2023-04-20T20:08:31.572Z,10.57
2023-04-20T20:11:01.614Z,10.52
2023-04-20T20:13:30.414Z,10.69
2023-04-20T20:15:59.193Z,10.78
2023-04-20T20:18:26.952Z,10.90
2023-04-20T20:20:54.467Z,10.56
2023-04-20T20:23:28.337Z,10.52
2023-04-20T20:25:56.408Z,10.62
2023-04-20T20:28:23.904Z,10.74
2023-04-20T20:30:51.692Z,10.84
2023-04-20T20:33:21.043Z,10.65
2023-04-20T20:35:51.270Z,10.59
2023-04-20T20:38:21.128Z,10.29
2023-04-20T20:40:53.836Z,10.37
2023-04-20T20:43:23.446Z,10.27
2023-04-20T20:45:52.123Z,10.38
2023-04-20T20:48:32.811Z,10.39
2023-04-20T20:51:00.458Z,10.23
2023-04-20T20:53:27.619Z,10.09
2023-04-20T20:55:55.241Z,9.76
2023-04-20T20:58:22.576Z,9.39
2023-04-20T21:00:51.213Z,9.13
2023-04-20T21:03:18.449Z,9.04
2023-04-20T21:05:47.119Z,8.92
2023-04-20T21:08:18.641Z,8.97
2023-04-20T21:10:46.163Z,8.95
2023-04-20T21:13:13.446Z,8.80
2023-04-20T21:15:41.228Z,9.06
2023-04-20T21:18:15.557Z,8.88
2023-04-20T21:20:43.063Z,8.73
2023-04-20T21:23:11.108Z,9.02
2023-04-20T21:25:39.527Z,9.09
2023-04-20T21:28:06.978Z,9.39
2023-04-20T21:30:34.440Z,9.41
2023-04-20T21:33:01.897Z,9.35
2023-04-20T21:35:36.980Z,9.09
2023-04-20T21:38:05.086Z,8.78
2023-04-20T21:40:34.471Z,9.00
2023-04-20T21:43:01.903Z,8.97
2023-04-20T21:45:29.327Z,8.81
2023-04-20T21:47:56.899Z,8.67
2023-04-20T21:50:27.253Z,8.45
2023-04-20T21:52:55.693Z,8.44
2023-04-20T21:55:28.918Z,8.38
2023-04-20T21:57:56.520Z,8.56
2023-04-20T22:00:23.930Z,8.61
2023-04-20T22:02:51.111Z,8.81
2023-04-20T22:05:18.746Z,8.70
2023-04-20T22:07:46.411Z,8.42
2023-04-20T22:10:14.948Z,8.38
2023-04-20T22:12:42.990Z,8.25
2023-04-20T22:15:12.556Z,8.48
2023-04-20T22:17:41.326Z,8.53
2023-04-20T22:20:10.783Z,8.25
2023-04-20T22:22:39.114Z,7.99
2023-04-20T22:25:10.137Z,7.58
2023-04-20T22:27:39.730Z,7.60
2023-04-20T22:30:09.795Z,7.62
2023-04-20T22:32:43.333Z,7.73
2023-04-20T22:35:13.048Z,7.47
2023-04-20T22:37:40.295Z,7.21
2023-04-20T22:40:14.993Z,7.62
2023-04-20T22:42:42.420Z,7.36
2023-04-20T22:45:11.782Z,7.03
2023-04-20T22:47:40.260Z,6.86
2023-04-20T22:50:09.888Z,7.08
2023-04-20T22:52:38.851Z,7.14
2023-04-20T22:55:12.486Z,7.12
2023-04-20T22:57:40.767Z,7.06
2023-04-20T23:00:11.005Z,7.27
2023-04-20T23:02:38.316Z,7.32
2023-04-20T23:05:06.810Z,7.32
2023-04-20T23:07:34.340Z,7.06
2023-04-20T23:10:01.764Z,6.90
2023-04-20T23:12:33.102Z,7.05
2023-04-20T23:15:01.688Z,7.00
2023-04-20T23:17:29.676Z,6.85
2023-04-20T23:19:57.305Z,6.71
2023-04-20T23:22:26.220Z,6.52
2023-04-20T23:24:53.653Z,6.69
2023-04-20T23:27:21.115Z,6.69
2023-04-20T23:29:48.530Z,6.68
2023-04-20T23:32:16.028Z,6.62
2023-04-20T23:34:44.514Z,6.51
2023-04-20T23:37:12.141Z,6.52
2023-04-20T23:39:39.510Z,6.62
2023-04-20T23:42:06.867Z,6.78
2023-04-20T23:44:39.926Z,6.80
2023-04-20T23:47:07.501Z,6.74
2023-04-20T23:49:47.688Z,6.80
2023-04-20T23:52:15.250Z,6.67
2023-04-20T23:54:42.572Z,6.72
2023-04-20T23:57:10.051Z,6.48
2023-04-20T23:59:37.541Z,6.50
